Time;durP1;ratioP1;P1;durP2;ratioP2;P2;SDS_P1;SDS_P2;PMS_P1;PMS_P2;Temp;Humidity;BMP_temperature;BMP_pressure;BME280_temperature;BME280_humidity;BME280_pressure;Samples;Min_cycle;Max_cycle;Signal;HPM_P1;HPM_P2
2021/01/28 00:00:08;;;;;;;31.97;18.73;;;8.80;99.90;;;;;;5070021;28;20585;-73
2021/01/28 00:02:33;;;;;;;32.43;19.67;;;8.80;99.90;;;;;;5071122;28;20188;-73
2021/01/28 00:04:59;;;;;;;31.87;18.93;;;8.90;99.90;;;;;;5054587;28;20427;-74
2021/01/28 00:07:25;;;;;;;32.77;19.10;;;8.90;99.90;;;;;;5060187;28;20211;-73
2021/01/28 00:09:51;;;;;;;34.47;20.40;;;8.90;99.90;;;;;;5071388;28;20172;-74
2021/01/28 00:12:17;;;;;;;36.80;21.13;;;8.90;99.90;;;;;;5072099;28;20222;-74
2021/01/28 00:14:42;;;;;;;35.50;21.13;;;8.90;99.90;;;;;;5072250;28;20463;-73
2021/01/28 00:17:08;;;;;;;35.40;19.43;;;8.90;99.90;;;;;;5059897;28;20488;-73
2021/01/28 00:19:34;;;;;;;32.50;20.40;;;8.90;99.90;;;;;;5052354;28;20258;-73
2021/01/28 00:22:00;;;;;;;35.67;20.00;;;8.90;99.90;;;;;;5049885;28;20177;-74
2021/01/28 00:24:25;;;;;;;35.90;20.57;;;8.90;99.90;;;;;;5052152;28;20593;-74
2021/01/28 00:26:51;;;;;;;38.30;19.77;;;8.90;99.90;;;;;;5048925;28;20687;-74
2021/01/28 00:29:17;;;;;;;37.87;21.80;;;8.90;99.90;;;;;;5050487;28;20631;-74
2021/01/28 00:31:43;;;;;;;34.57;20.20;;;8.90;99.90;;;;;;5050920;28;20630;-74
2021/01/28 00:34:09;;;;;;;35.13;19.10;;;8.90;99.90;;;;;;5051204;28;20379;-74
2021/01/28 00:36:34;;;;;;;33.50;20.80;;;8.90;99.90;;;;;;5033941;28;20200;-74
2021/01/28 00:39:00;;;;;;;34.93;21.57;;;8.90;99.90;;;;;;5051390;28;20387;-75
2021/01/28 00:41:26;;;;;;;33.77;20.43;;;8.90;99.90;;;;;;5051723;28;20173;-74
2021/01/28 00:43:52;;;;;;;35.73;22.10;;;8.90;99.90;;;;;;5050047;28;20774;-74
2021/01/28 00:46:18;;;;;;;33.90;21.37;;;9.00;99.90;;;;;;5050967;28;20240;-74
2021/01/28 00:48:44;;;;;;;35.73;20.73;;;8.90;99.90;;;;;;5051593;28;20643;-80
2021/01/28 00:51:10;;;;;;;36.20;21.20;;;8.90;99.90;;;;;;5048938;28;20689;-74
2021/01/28 00:53:36;;;;;;;35.20;19.73;;;8.90;99.90;;;;;;5051424;28;20487;-74
2021/01/28 00:56:02;;;;;;;37.40;21.17;;;8.90;99.90;;;;;;5050957;28;20185;-74
2021/01/28 00:58:28;;;;;;;35.53;19.20;;;8.90;99.90;;;;;;5051191;28;20181;-74
2021/01/28 01:00:55;;;;;;;33.00;19.60;;;8.80;99.90;;;;;;5050951;28;20382;-74
2021/01/28 01:03:22;;;;;;;38.13;21.43;;;8.90;99.90;;;;;;5051436;28;20576;-74
2021/01/28 01:05:49;;;;;;;40.77;21.23;;;8.90;99.90;;;;;;5050901;28;20387;-78
2021/01/28 01:08:27;;;;;;;37.23;21.03;;;8.90;99.90;;;;;;5051570;28;20419;-74
2021/01/28 01:10:56;;;;;;;39.07;20.80;;;8.90;99.90;;;;;;5050040;28;20391;-74
2021/01/28 01:13:25;;;;;;;35.50;20.63;;;8.90;99.90;;;;;;5051647;28;20391;-74
2021/01/28 01:15:51;;;;;;;39.97;21.00;;;8.90;99.90;;;;;;5049867;28;20415;-75
2021/01/28 01:18:25;;;;;;;35.40;21.00;;;8.90;99.90;;;;;;5051647;28;20381;-74
2021/01/28 01:20:51;;;;;;;30.37;19.60;;;8.90;99.90;;;;;;5044535;28;20396;-75
2021/01/28 01:23:17;;;;;;;39.07;19.80;;;8.90;99.90;;;;;;5051878;28;20415;-74
2021/01/28 01:25:43;;;;;;;31.83;19.60;;;8.90;99.90;;;;;;5051687;28;20422;-74
2021/01/28 01:28:09;;;;;;;32.43;20.40;;;8.90;99.90;;;;;;5050787;28;20786;-74
2021/01/28 01:30:35;;;;;;;35.30;19.13;;;8.90;99.90;;;;;;5032380;28;20644;-76
2021/01/28 01:33:01;;;;;;;29.70;18.87;;;9.00;99.90;;;;;;5037247;28;21085;-75
2021/01/28 01:35:27;;;;;;;28.83;18.60;;;8.90;99.90;;;;;;5052153;28;20377;-75
2021/01/28 01:37:55;;;;;;;35.30;20.73;;;8.90;99.90;;;;;;5043046;28;20905;-76
2021/01/28 01:40:30;;;;;;;40.00;21.20;;;8.90;99.90;;;;;;5048755;28;20418;-74
2021/01/28 01:42:57;;;;;;;35.03;19.63;;;8.90;99.90;;;;;;5054058;28;20408;-74
2021/01/28 01:45:54;;;;;;;34.60;17.77;;;9.00;99.90;;;;;;5054976;28;20887;-74
2021/01/28 01:48:23;;;;;;;22.80;15.97;;;9.00;99.90;;;;;;5035116;28;20422;-75
2021/01/28 01:51:17;;;;;;;29.67;17.13;;;9.00;99.90;;;;;;5040357;28;20398;-81
2021/01/28 01:53:50;;;;;;;28.83;17.87;;;9.00;99.90;;;;;;5023233;28;20751;-74
2021/01/28 01:56:39;;;;;;;31.77;19.03;;;9.00;99.90;;;;;;5034741;28;20910;-74
2021/01/28 01:59:40;;;;;;;29.80;19.17;;;9.00;99.90;;;;;;5034313;28;20405;-75
2021/01/28 02:02:11;;;;;;;30.73;18.23;;;9.00;99.90;;;;;;5034313;28;20423;-74
2021/01/28 02:04:38;;;;;;;28.20;17.77;;;9.00;99.90;;;;;;5017338;28;20406;-74
2021/01/28 02:07:10;;;;;;;30.10;17.80;;;9.10;99.90;;;;;;5034044;28;20453;-75
2021/01/28 02:09:36;;;;;;;29.27;17.03;;;9.00;99.90;;;;;;5021690;28;20416;-74
2021/01/28 02:12:02;;;;;;;25.20;16.93;;;9.00;99.90;;;;;;5053905;28;20400;-75
2021/01/28 02:14:30;;;;;;;25.57;15.57;;;9.00;99.90;;;;;;5036491;28;20189;-75
2021/01/28 02:17:00;;;;;;;25.30;15.60;;;9.00;99.90;;;;;;5053836;28;20408;-75
2021/01/28 02:20:08;;;;;;;25.50;16.43;;;9.00;99.90;;;;;;5054616;28;20385;-75
2021/01/28 02:22:58;;;;;;;23.43;15.47;;;9.00;99.90;;;;;;5041212;28;20894;-75
2021/01/28 02:25:31;;;;;;;24.87;15.50;;;9.00;99.90;;;;;;5054701;28;20716;-75
2021/01/28 02:28:06;;;;;;;21.20;15.13;;;9.00;99.90;;;;;;5055446;28;20527;-75
2021/01/28 02:30:33;;;;;;;23.10;15.40;;;9.00;99.90;;;;;;5039056;28;20427;-74
2021/01/28 02:33:00;;;;;;;21.87;14.30;;;9.00;99.90;;;;;;5044067;28;20888;-75
2021/01/28 02:35:29;;;;;;;25.13;15.77;;;9.00;99.90;;;;;;5054024;28;20398;-74
2021/01/28 02:37:56;;;;;;;23.80;15.00;;;9.00;99.90;;;;;;5053462;28;20531;-75
2021/01/28 02:40:24;;;;;;;25.33;15.67;;;9.00;99.90;;;;;;5053032;28;20416;-74
2021/01/28 02:42:50;;;;;;;27.53;16.70;;;9.00;99.90;;;;;;5053555;28;20473;-81
2021/01/28 02:45:22;;;;;;;24.40;16.50;;;9.00;99.90;;;;;;5053710;28;20554;-74
2021/01/28 02:47:58;;;;;;;22.20;16.60;;;9.00;99.90;;;;;;5054079;28;20182;-74
2021/01/28 02:50:27;;;;;;;25.57;16.40;;;9.10;99.90;;;;;;5034582;28;20416;-74
2021/01/28 02:53:00;;;;;;;23.60;15.13;;;9.10;99.90;;;;;;5034976;28;20508;-81
2021/01/28 02:55:28;;;;;;;24.43;15.53;;;9.10;99.90;;;;;;5054068;28;20394;-75
2021/01/28 02:57:54;;;;;;;27.57;16.03;;;9.10;99.90;;;;;;5053428;28;20428;-82
2021/01/28 03:00:32;;;;;;;24.03;14.70;;;9.10;99.90;;;;;;5036079;28;20411;-74
2021/01/28 03:02:58;;;;;;;23.70;15.40;;;9.10;99.90;;;;;;5052799;28;20407;-76
2021/01/28 03:05:24;;;;;;;22.77;16.07;;;9.10;99.90;;;;;;5053558;28;21032;-74
2021/01/28 03:07:50;;;;;;;20.97;14.10;;;9.10;99.90;;;;;;5053483;28;20464;-74
2021/01/28 03:10:20;;;;;;;22.40;14.40;;;9.00;99.90;;;;;;5020021;28;20228;-75
2021/01/28 03:12:46;;;;;;;21.20;13.77;;;9.10;99.90;;;;;;5033392;28;20978;-74
2021/01/28 03:15:15;;;;;;;21.47;15.10;;;9.10;99.90;;;;;;5032906;28;20380;-74
2021/01/28 03:17:40;;;;;;;18.60;12.70;;;9.00;99.90;;;;;;5033662;28;20409;-74
2021/01/28 03:20:08;;;;;;;16.17;13.17;;;9.00;99.90;;;;;;5032824;28;20444;-74
2021/01/28 03:22:34;;;;;;;18.57;12.37;;;9.00;99.90;;;;;;5030446;28;20363;-74
2021/01/28 03:25:00;;;;;;;15.77;11.13;;;9.00;99.90;;;;;;5032998;28;20427;-75
2021/01/28 03:27:26;;;;;;;14.63;11.27;;;9.00;99.90;;;;;;5053048;28;20844;-75
2021/01/28 03:29:52;;;;;;;19.13;11.90;;;9.00;99.90;;;;;;5049692;28;20178;-81
2021/01/28 03:32:17;;;;;;;15.97;12.00;;;9.00;99.90;;;;;;5052165;28;20181;-75
2021/01/28 03:34:43;;;;;;;18.10;10.97;;;9.00;99.90;;;;;;5053179;28;20461;-74
2021/01/28 03:37:09;;;;;;;15.90;11.87;;;9.00;99.90;;;;;;5050668;28;20186;-75
2021/01/28 03:39:35;;;;;;;14.87;10.87;;;8.90;99.90;;;;;;5053951;28;20178;-74
2021/01/28 03:42:00;;;;;;;14.97;10.77;;;8.90;99.90;;;;;;5051814;28;20184;-75
2021/01/28 03:44:26;;;;;;;15.97;10.97;;;8.90;99.90;;;;;;5052924;28;20169;-74
2021/01/28 03:46:52;;;;;;;14.30;12.00;;;8.80;99.90;;;;;;5052887;28;20205;-74
2021/01/28 03:49:17;;;;;;;17.20;11.80;;;8.70;99.90;;;;;;5051047;28;20295;-75
2021/01/28 03:51:43;;;;;;;14.03;10.30;;;8.80;99.90;;;;;;5052632;28;20672;-74
2021/01/28 03:54:09;;;;;;;15.13;10.90;;;8.80;99.90;;;;;;5051761;28;20256;-75
2021/01/28 03:56:34;;;;;;;16.20;10.67;;;8.80;99.90;;;;;;5052869;28;20276;-74
2021/01/28 03:59:00;;;;;;;12.97;9.70;;;8.80;99.90;;;;;;5051923;28;20180;-75
2021/01/28 04:01:26;;;;;;;14.23;10.90;;;8.80;99.90;;;;;;5052908;28;20227;-74
2021/01/28 04:03:51;;;;;;;13.23;10.10;;;8.80;99.90;;;;;;5051753;28;20268;-75
2021/01/28 04:06:17;;;;;;;13.50;11.07;;;8.80;99.90;;;;;;5039281;28;20466;-76
2021/01/28 04:08:43;;;;;;;15.67;10.77;;;8.90;99.90;;;;;;5032617;28;20186;-77
2021/01/28 04:11:08;;;;;;;12.80;9.67;;;8.90;99.90;;;;;;5014071;28;20205;-76
2021/01/28 04:13:34;;;;;;;14.57;10.53;;;8.80;99.90;;;;;;5014769;28;20520;-76
2021/01/28 04:16:00;;;;;;;15.10;11.00;;;8.80;99.90;;;;;;5031786;28;20173;-77
2021/01/28 04:18:26;;;;;;;14.70;11.47;;;8.70;99.90;;;;;;5032494;28;20259;-76
2021/01/28 04:20:51;;;;;;;13.83;10.83;;;8.70;99.90;;;;;;5032460;28;20174;-76
2021/01/28 04:23:18;;;;;;;15.47;11.40;;;8.70;99.90;;;;;;5031672;28;20197;-76
2021/01/28 04:25:44;;;;;;;13.67;10.70;;;8.70;99.90;;;;;;5045896;28;20502;-76
2021/01/28 04:28:10;;;;;;;16.80;11.90;;;8.70;99.90;;;;;;5051050;28;20487;-76
2021/01/28 04:30:35;;;;;;;16.30;11.23;;;8.70;99.90;;;;;;5034737;28;20772;-75
2021/01/28 04:33:03;;;;;;;17.03;11.43;;;8.70;99.90;;;;;;5051371;28;20199;-76
2021/01/28 04:35:29;;;;;;;17.90;12.63;;;8.70;99.90;;;;;;5052232;28;20253;-76
2021/01/28 04:37:56;;;;;;;16.97;12.53;;;8.70;99.90;;;;;;5034421;28;20501;-74
2021/01/28 04:40:39;;;;;;;19.27;13.03;;;8.70;99.90;;;;;;5051794;28;20411;-74
2021/01/28 04:43:23;;;;;;;21.03;14.07;;;8.70;99.90;;;;;;5051144;28;20408;-75
2021/01/28 04:45:51;;;;;;;20.87;14.57;;;8.70;99.90;;;;;;5023002;28;20420;-74
2021/01/28 04:48:17;;;;;;;17.43;13.30;;;8.70;99.90;;;;;;5031298;28;20383;-74
2021/01/28 04:50:43;;;;;;;18.50;14.40;;;8.80;99.90;;;;;;5032047;28;20415;-75
2021/01/28 04:53:21;;;;;;;20.50;12.87;;;8.80;99.90;;;;;;5031394;28;20517;-75
2021/01/28 04:55:50;;;;;;;15.87;11.80;;;8.80;99.90;;;;;;5046023;28;20428;-74
2021/01/28 04:58:17;;;;;;;19.40;13.03;;;8.80;99.90;;;;;;5051251;28;20498;-75
2021/01/28 05:00:42;;;;;;;15.67;13.90;;;8.80;99.90;;;;;;5051990;28;20382;-74
2021/01/28 05:03:40;;;;;;;19.80;14.13;;;8.80;99.90;;;;;;5051129;28;20390;-75
2021/01/28 05:06:06;;;;;;;17.90;13.40;;;8.70;99.90;;;;;;5034786;28;20166;-75
2021/01/28 05:08:32;;;;;;;14.97;12.30;;;8.80;99.90;;;;;;5033207;28;20431;-74
2021/01/28 05:10:59;;;;;;;17.83;11.60;;;8.70;99.90;;;;;;5049092;28;20465;-75
2021/01/28 05:13:31;;;;;;;16.27;11.60;;;8.60;99.90;;;;;;5071453;28;20510;-74
2021/01/28 05:16:17;;;;;;;15.80;11.07;;;8.50;99.90;;;;;;5064086;28;20749;-74
2021/01/28 05:18:43;;;;;;;16.63;11.30;;;8.50;99.90;;;;;;5036606;28;20577;-74
2021/01/28 05:21:18;;;;;;;15.60;10.57;;;8.60;99.90;;;;;;5042970;28;20495;-74
2021/01/28 05:23:46;;;;;;;17.60;11.27;;;8.60;99.90;;;;;;5072386;28;20547;-77
2021/01/28 05:26:39;;;;;;;19.77;13.60;;;8.60;99.90;;;;;;5046127;28;20462;-75
2021/01/28 05:29:23;;;;;;;13.97;10.80;;;8.60;99.90;;;;;;5079349;28;20481;-74
2021/01/28 05:31:51;;;;;;;17.53;10.57;;;8.60;99.90;;;;;;5085276;28;20508;-75
2021/01/28 05:34:26;;;;;;;20.70;15.07;;;8.50;99.90;;;;;;5074371;28;20553;-74
2021/01/28 05:37:02;;;;;;;19.50;13.47;;;8.40;99.90;;;;;;5074467;28;20401;-74
2021/01/28 05:39:40;;;;;;;16.53;11.53;;;8.40;99.90;;;;;;5073497;28;20415;-75
2021/01/28 05:42:31;;;;;;;15.87;10.47;;;8.30;99.90;;;;;;5058671;28;20439;-75
2021/01/28 05:44:57;;;;;;;14.27;10.33;;;8.30;99.90;;;;;;5055547;28;20431;-74
2021/01/28 05:47:32;;;;;;;12.50;9.20;;;8.20;99.90;;;;;;5058957;28;20449;-77
2021/01/28 05:50:37;;;;;;;11.20;8.70;;;8.20;99.90;;;;;;5069472;28;20752;-72
2021/01/28 05:53:15;;;;;;;9.60;8.00;;;8.10;99.90;;;;;;4990917;28;20434;-75
2021/01/28 05:55:42;;;;;;;12.40;8.13;;;8.20;99.90;;;;;;4978364;28;20548;-72
2021/01/28 05:58:41;;;;;;;7.77;7.00;;;8.20;99.90;;;;;;5018740;28;20898;-72
2021/01/28 06:01:18;;;;;;;9.30;7.80;;;8.20;99.90;;;;;;5043500;28;20766;-72
2021/01/28 06:03:53;;;;;;;8.40;6.87;;;8.20;99.90;;;;;;5056379;28;20426;-72
2021/01/28 06:06:39;;;;;;;10.50;8.20;;;8.30;99.90;;;;;;5054555;28;20509;-72
2021/01/28 06:09:32;;;;;;;8.13;7.10;;;8.30;99.90;;;;;;5055614;28;20362;-73
2021/01/28 06:12:07;;;;;;;6.80;6.07;;;8.40;99.90;;;;;;5055235;28;20744;-73
2021/01/28 06:14:36;;;;;;;9.20;5.97;;;8.30;99.90;;;;;;5069075;28;20427;-73
2021/01/28 06:17:30;;;;;;;7.60;6.93;;;8.30;99.90;;;;;;5074713;28;20441;-73
2021/01/28 06:19:56;;;;;;;7.23;6.40;;;8.40;99.90;;;;;;5072861;28;20425;-72
2021/01/28 06:22:27;;;;;;;7.77;6.97;;;8.40;99.90;;;;;;5059268;28;20767;-72
2021/01/28 06:25:11;;;;;;;8.60;6.80;;;8.30;99.90;;;;;;5074656;28;20180;-72
2021/01/28 06:27:43;;;;;;;7.03;5.63;;;8.30;99.90;;;;;;5066782;28;20497;-72
2021/01/28 06:30:53;;;;;;;6.90;5.20;;;8.30;99.90;;;;;;5043211;28;20572;-73
2021/01/28 06:33:53;;;;;;;7.30;5.23;;;8.20;99.90;;;;;;5023601;28;20422;-73
2021/01/28 06:36:27;;;;;;;6.70;5.30;;;8.20;99.90;;;;;;5053857;28;20407;-72
2021/01/28 06:39:16;;;;;;;8.70;5.90;;;8.20;99.90;;;;;;5054559;28;20420;-72
2021/01/28 06:42:13;;;;;;;5.20;4.70;;;8.20;99.90;;;;;;5054480;28;20399;-72
2021/01/28 06:44:55;;;;;;;5.77;5.37;;;8.20;99.90;;;;;;5054247;28;20395;-72
2021/01/28 06:47:36;;;;;;;5.10;4.70;;;8.20;99.90;;;;;;5018789;28;20549;-72
2021/01/28 06:50:39;;;;;;;4.83;4.43;;;8.10;99.90;;;;;;5053375;28;20401;-72
2021/01/28 06:53:14;;;;;;;5.17;4.60;;;8.10;99.90;;;;;;5053785;28;20456;-75
2021/01/28 06:56:10;;;;;;;5.37;4.50;;;8.00;99.90;;;;;;5054262;28;20829;-72
2021/01/28 06:59:00;;;;;;;5.00;4.50;;;8.00;99.90;;;;;;5054001;28;20374;-72
2021/01/28 07:01:43;;;;;;;4.93;4.53;;;8.00;99.90;;;;;;5033235;28;21060;-72
2021/01/28 07:04:22;;;;;;;4.93;4.53;;;8.00;99.90;;;;;;5033175;28;20462;-73
2021/01/28 07:07:12;;;;;;;5.13;3.80;;;7.90;99.90;;;;;;5033573;28;20478;-72
2021/01/28 07:09:41;;;;;;;5.07;4.57;;;7.80;99.90;;;;;;5034856;28;20458;-72
2021/01/28 07:12:11;;;;;;;5.07;4.67;;;7.90;99.90;;;;;;5015313;28;20878;-75
2021/01/28 07:14:38;;;;;;;5.17;4.80;;;8.00;99.90;;;;;;5033459;28;20407;-72
2021/01/28 07:17:19;;;;;;;4.77;4.47;;;8.10;99.90;;;;;;5033748;28;20441;-72
2021/01/28 07:20:00;;;;;;;3.70;3.50;;;8.10;99.90;;;;;;5043508;28;20473;-72
2021/01/28 07:22:32;;;;;;;4.80;4.50;;;8.10;99.90;;;;;;5036426;28;20699;-73
2021/01/28 07:25:27;;;;;;;4.70;4.30;;;8.10;99.90;;;;;;5033208;28;20450;-73
2021/01/28 07:28:00;;;;;;;4.47;4.17;;;8.20;99.90;;;;;;5035547;28;20454;-72
2021/01/28 07:30:48;;;;;;;4.70;4.30;;;8.20;99.90;;;;;;5045727;28;21349;-72
2021/01/28 07:33:23;;;;;;;5.23;4.83;;;8.30;99.90;;;;;;5032147;28;20582;-73
2021/01/28 07:35:53;;;;;;;5.60;5.10;;;8.20;99.90;;;;;;5032738;28;20475;-72
2021/01/28 07:38:28;;;;;;;5.00;4.60;;;8.20;99.90;;;;;;5039965;28;20415;-72
2021/01/28 07:41:09;;;;;;;5.27;4.60;;;8.20;99.90;;;;;;5032192;28;20444;-73
2021/01/28 07:43:40;;;;;;;6.03;5.47;;;8.20;99.90;;;;;;5017687;28;20474;-73
2021/01/28 07:46:32;;;;;;;5.70;5.27;;;8.20;99.90;;;;;;5032190;28;20416;-76
2021/01/28 07:49:13;;;;;;;5.35;4.85;;;8.30;99.90;;;;;;5026624;28;20412;-75
2021/01/28 07:51:47;;;;;;;5.23;4.83;;;8.30;99.90;;;;;;5033142;28;20424;-75
2021/01/28 07:54:25;;;;;;;4.60;4.30;;;8.40;99.90;;;;;;5041569;28;20763;-75
2021/01/28 07:57:12;;;;;;;3.60;3.40;;;8.30;99.90;;;;;;5019699;28;20443;-74
2021/01/28 07:59:54;;;;;;;4.80;4.40;;;8.30;99.90;;;;;;5039982;28;20415;-74
2021/01/28 08:02:27;;;;;;;3.90;3.60;;;8.40;99.90;;;;;;5037089;28;20419;-76
2021/01/28 08:05:04;;;;;;;3.10;2.90;;;8.50;99.90;;;;;;5032824;28;20461;-76
2021/01/28 08:07:39;;;;;;;4.07;3.77;;;8.30;99.90;;;;;;5031838;28;20479;-73
2021/01/28 08:10:25;;;;;;;3.33;3.03;;;8.20;99.90;;;;;;5032978;28;20412;-74
2021/01/28 08:13:24;;;;;;;3.97;3.67;;;8.10;99.90;;;;;;5036568;28;20411;-75
2021/01/28 08:15:59;;;;;;;3.53;3.33;;;7.90;99.90;;;;;;5044763;28;20940;-75
2021/01/28 08:18:36;;;;;;;3.30;3.10;;;7.90;99.90;;;;;;5051817;28;20778;-75
2021/01/28 08:21:24;;;;;;;3.37;3.17;;;8.10;99.90;;;;;;5040016;28;20391;-75
2021/01/28 08:23:50;;;;;;;3.60;3.30;;;8.10;99.90;;;;;;5071131;28;20399;-75
2021/01/28 08:26:24;;;;;;;3.67;3.37;;;8.20;99.90;;;;;;5031958;28;20756;-74
2021/01/28 08:29:11;;;;;;;3.70;3.50;;;8.20;99.90;;;;;;5033489;28;20442;-73
2021/01/28 08:31:43;;;;;;;3.97;3.77;;;8.20;99.90;;;;;;5052421;28;20477;-71
2021/01/28 08:34:16;;;;;;;3.57;3.30;;;8.30;99.90;;;;;;5051525;28;20466;-72
2021/01/28 08:36:44;;;;;;;3.67;3.37;;;8.30;99.90;;;;;;5052122;28;20443;-71
2021/01/28 08:39:15;;;;;;;4.53;4.13;;;8.30;99.90;;;;;;5051901;28;20411;-73
2021/01/28 08:41:42;;;;;;;4.90;4.43;;;8.30;99.90;;;;;;5035008;28;20729;-71
2021/01/28 08:44:11;;;;;;;5.40;4.97;;;8.30;99.90;;;;;;5052129;28;20400;-74
2021/01/28 08:46:42;;;;;;;6.20;5.60;;;8.30;99.90;;;;;;5052431;28;20437;-74
2021/01/28 08:49:17;;;;;;;6.40;5.80;;;8.30;99.90;;;;;;5051453;28;20871;-74
2021/01/28 08:51:48;;;;;;;7.57;5.13;;;8.30;99.90;;;;;;5045935;28;20423;-74
2021/01/28 08:54:19;;;;;;;6.53;5.93;;;8.30;99.90;;;;;;5047063;28;20483;-73
2021/01/28 08:56:46;;;;;;;8.47;5.43;;;8.30;99.90;;;;;;5039508;28;20421;-74
2021/01/28 08:59:16;;;;;;;7.00;5.87;;;8.30;99.90;;;;;;5039773;28;20765;-76
2021/01/28 09:01:46;;;;;;;6.57;5.93;;;8.30;99.90;;;;;;5025983;28;20442;-73
2021/01/28 09:04:21;;;;;;;7.10;6.40;;;8.30;99.90;;;;;;5031471;28;20454;-75
2021/01/28 09:06:49;;;;;;;5.60;5.10;;;8.30;99.90;;;;;;5040344;28;20769;-74
2021/01/28 09:09:27;;;;;;;6.40;5.70;;;8.30;99.90;;;;;;5045424;28;20495;-74
2021/01/28 09:12:13;;;;;;;5.43;4.90;;;8.30;99.90;;;;;;5049583;28;20387;-74
2021/01/28 09:14:40;;;;;;;8.67;4.83;;;8.40;99.90;;;;;;5051386;28;20420;-74
2021/01/28 09:17:21;;;;;;;5.70;5.23;;;8.30;99.90;;;;;;5048742;28;20459;-74
2021/01/28 09:20:00;;;;;;;5.80;5.20;;;8.40;99.90;;;;;;5040855;28;20550;-75
2021/01/28 09:22:29;;;;;;;5.20;4.80;;;8.40;99.90;;;;;;5018423;28;20428;-75
2021/01/28 09:24:54;;;;;;;5.47;4.97;;;8.40;99.90;;;;;;5032355;28;20423;-74
2021/01/28 09:27:20;;;;;;;5.40;4.70;;;8.40;99.90;;;;;;5022922;28;20466;-75
2021/01/28 09:29:48;;;;;;;5.10;4.70;;;8.40;99.90;;;;;;5058423;28;20184;-75
2021/01/28 09:32:23;;;;;;;4.83;4.07;;;8.50;99.90;;;;;;5057300;28;20202;-77
2021/01/28 09:35:20;;;;;;;5.43;3.70;;;8.50;99.90;;;;;;5071053;28;20389;-75
2021/01/28 09:38:15;;;;;;;5.40;4.90;;;8.40;99.90;;;;;;5055485;28;20507;-75
2021/01/28 09:40:46;;;;;;;4.23;3.83;;;8.40;99.90;;;;;;5051728;28;20395;-74
2021/01/28 09:43:16;;;;;;;5.00;4.50;;;8.40;99.90;;;;;;5050991;28;20404;-77
2021/01/28 09:45:43;;;;;;;4.47;4.07;;;8.40;99.90;;;;;;5051871;28;20499;-75
2021/01/28 09:48:10;;;;;;;4.20;3.80;;;8.40;99.90;;;;;;5051837;28;20487;-75
2021/01/28 09:50:36;;;;;;;5.60;5.10;;;8.40;99.90;;;;;;5049813;28;20414;-75
2021/01/28 09:53:02;;;;;;;6.10;4.57;;;8.40;99.90;;;;;;5059414;28;20517;-75
2021/01/28 09:55:30;;;;;;;6.40;5.80;;;8.40;99.90;;;;;;5062831;28;20184;-75
2021/01/28 09:57:56;;;;;;;6.03;4.87;;;8.40;99.90;;;;;;5051816;28;20239;-75
2021/01/28 10:00:24;;;;;;;4.10;3.80;;;8.40;99.90;;;;;;5067223;28;20484;-75
2021/01/28 10:02:58;;;;;;;3.97;3.67;;;8.40;99.90;;;;;;5066566;28;20430;-74
2021/01/28 10:05:28;;;;;;;4.80;4.40;;;8.40;99.90;;;;;;5060838;28;20951;-75
2021/01/28 10:07:54;;;;;;;7.50;5.60;;;8.40;99.90;;;;;;5061599;28;20524;-75
2021/01/28 10:10:23;;;;;;;5.77;5.20;;;8.40;99.90;;;;;;5054598;28;20394;-75
2021/01/28 10:12:51;;;;;;;5.07;4.57;;;8.40;99.90;;;;;;5054044;28;20435;-74
2021/01/28 10:15:17;;;;;;;5.07;4.67;;;8.30;99.90;;;;;;5053374;28;20764;-75
2021/01/28 10:17:44;;;;;;;5.37;4.90;;;8.30;99.90;;;;;;5055100;28;20393;-75
2021/01/28 10:20:11;;;;;;;5.07;4.70;;;8.40;99.90;;;;;;5055135;28;20340;-75
2021/01/28 10:22:38;;;;;;;6.67;6.07;;;8.40;99.90;;;;;;5054487;28;20411;-75
2021/01/28 10:25:07;;;;;;;7.07;6.57;;;8.40;99.90;;;;;;5054966;28;20814;-75
2021/01/28 10:27:33;;;;;;;6.97;6.37;;;8.40;99.90;;;;;;5047390;28;20480;-75
2021/01/28 10:29:59;;;;;;;7.33;6.63;;;8.40;99.90;;;;;;5044384;28;20485;-75
2021/01/28 10:32:24;;;;;;;6.17;5.57;;;8.40;99.90;;;;;;5035037;28;20505;-75
2021/01/28 10:34:50;;;;;;;9.30;5.17;;;8.40;99.90;;;;;;5054511;28;20215;-75
2021/01/28 10:37:17;;;;;;;5.73;5.30;;;8.40;99.90;;;;;;5036173;28;20184;-77
2021/01/28 10:39:44;;;;;;;5.53;5.07;;;8.50;99.90;;;;;;5038121;28;20178;-75
2021/01/28 10:42:18;;;;;;;4.90;4.40;;;8.50;99.90;;;;;;5039745;28;20415;-75
2021/01/28 10:44:44;;;;;;;5.70;5.30;;;8.50;99.90;;;;;;5026574;28;20430;-75
2021/01/28 10:47:10;;;;;;;7.07;4.50;;;8.40;99.90;;;;;;5042690;28;20456;-75
2021/01/28 10:49:35;;;;;;;4.60;4.27;;;8.40;99.90;;;;;;5024166;28;20197;-75
2021/01/28 10:52:01;;;;;;;7.40;6.90;;;8.40;99.90;;;;;;5039914;28;20176;-72
2021/01/28 10:54:27;;;;;;;6.20;5.70;;;8.40;99.90;;;;;;5053081;28;20516;-72
2021/01/28 10:56:53;;;;;;;4.87;4.30;;;8.40;99.90;;;;;;5053274;28;20205;-72
2021/01/28 10:59:19;;;;;;;4.73;4.27;;;8.40;99.90;;;;;;5053506;28;20196;-72
2021/01/28 11:01:45;;;;;;;5.00;4.60;;;8.50;99.90;;;;;;5022095;28;20394;-72
2021/01/28 11:04:11;;;;;;;5.00;4.50;;;8.50;99.90;;;;;;5036799;28;20788;-72
2021/01/28 11:06:37;;;;;;;4.63;4.23;;;8.50;99.90;;;;;;5053428;28;20432;-72
2021/01/28 11:09:03;;;;;;;5.40;4.90;;;8.40;99.90;;;;;;5054127;28;20180;-72
2021/01/28 11:11:29;;;;;;;6.30;5.70;;;8.50;99.90;;;;;;5044831;28;20897;-72
2021/01/28 11:13:55;;;;;;;6.03;5.53;;;8.40;99.90;;;;;;5033540;28;20391;-72
2021/01/28 11:16:26;;;;;;;4.60;4.30;;;8.40;99.90;;;;;;5033199;28;20193;-72
2021/01/28 11:18:54;;;;;;;6.57;6.07;;;8.40;99.90;;;;;;5040185;28;20404;-71
2021/01/28 11:21:21;;;;;;;5.73;5.20;;;8.40;99.90;;;;;;5042491;28;20395;-72
2021/01/28 11:23:47;;;;;;;6.10;5.60;;;8.40;99.90;;;;;;5044172;28;20378;-71
2021/01/28 11:26:14;;;;;;;5.83;5.33;;;8.50;99.90;;;;;;5043116;28;20490;-71
2021/01/28 11:28:40;;;;;;;5.03;4.63;;;8.50;99.90;;;;;;5040319;28;20850;-71
2021/01/28 11:31:05;;;;;;;5.03;4.73;;;8.50;99.90;;;;;;5044050;28;20398;-71
2021/01/28 11:33:32;;;;;;;6.67;4.70;;;8.40;99.90;;;;;;5040786;28;20412;-71
2021/01/28 11:35:59;;;;;;;4.57;4.27;;;8.50;99.90;;;;;;5045729;28;20424;-71
2021/01/28 11:38:25;;;;;;;5.90;5.40;;;8.50;99.90;;;;;;5034137;28;20412;-72
2021/01/28 11:40:51;;;;;;;4.90;4.50;;;8.50;99.90;;;;;;5049268;28;20408;-72
2021/01/28 11:43:17;;;;;;;4.70;4.30;;;8.50;99.90;;;;;;5039208;28;20405;-71
2021/01/28 11:45:43;;;;;;;5.93;5.53;;;8.50;99.90;;;;;;5024070;28;20472;-72
2021/01/28 11:48:09;;;;;;;4.83;4.53;;;8.50;99.90;;;;;;5041716;28;20550;-72
2021/01/28 11:50:35;;;;;;;5.00;4.50;;;8.50;99.90;;;;;;5040137;28;20580;-72
2021/01/28 11:53:01;;;;;;;4.53;4.10;;;8.50;99.90;;;;;;5044415;28;20410;-71
2021/01/28 11:55:28;;;;;;;4.57;4.27;;;8.50;99.90;;;;;;5038897;28;20462;-71
2021/01/28 11:57:54;;;;;;;6.33;5.90;;;8.50;99.90;;;;;;5024891;28;20515;-71
2021/01/28 12:00:21;;;;;;;5.43;4.93;;;8.50;99.90;;;;;;5045550;28;20752;-71
2021/01/28 12:02:47;;;;;;;6.33;5.93;;;8.50;99.90;;;;;;5033521;28;20427;-71
2021/01/28 12:05:16;;;;;;;5.43;4.90;;;8.40;99.90;;;;;;5054126;28;20503;-71
2021/01/28 12:07:42;;;;;;;6.40;6.00;;;8.40;99.90;;;;;;5052843;28;20437;-71
2021/01/28 12:10:10;;;;;;;7.50;7.00;;;8.40;99.90;;;;;;5018017;28;20385;-71
2021/01/28 12:12:37;;;;;;;5.90;5.40;;;8.40;99.90;;;;;;5052139;28;20514;-71
2021/01/28 12:15:05;;;;;;;6.43;6.00;;;8.40;99.90;;;;;;5052682;28;20490;-71
2021/01/28 12:17:31;;;;;;;4.60;4.30;;;8.30;99.90;;;;;;5052079;28;20423;-73
2021/01/28 12:19:57;;;;;;;6.30;5.77;;;8.30;99.90;;;;;;5052953;28;20895;-74
2021/01/28 12:22:22;;;;;;;4.77;4.47;;;8.40;99.90;;;;;;5051539;28;20640;-73
2021/01/28 12:24:48;;;;;;;5.00;4.70;;;8.50;99.90;;;;;;5051415;28;20180;-73
2021/01/28 12:27:14;;;;;;;5.67;5.27;;;8.50;99.90;;;;;;5052012;28;20246;-73
2021/01/28 12:29:40;;;;;;;6.10;5.60;;;8.50;99.90;;;;;;5051628;28;20591;-74
2021/01/28 12:32:07;;;;;;;5.87;5.40;;;8.50;99.90;;;;;;5052236;28;20222;-74
2021/01/28 12:34:33;;;;;;;5.10;4.80;;;8.50;99.90;;;;;;5051398;28;20943;-74
2021/01/28 12:36:59;;;;;;;5.60;5.20;;;8.50;99.90;;;;;;5052411;28;20430;-73
2021/01/28 12:39:25;;;;;;;5.50;5.10;;;8.50;99.90;;;;;;5051630;28;20423;-74
2021/01/28 12:41:50;;;;;;;5.63;5.23;;;8.50;99.90;;;;;;5040426;28;20181;-74
2021/01/28 12:44:17;;;;;;;5.20;4.87;;;8.50;99.90;;;;;;5033953;28;20272;-74
2021/01/28 12:46:43;;;;;;;6.47;6.07;;;8.50;99.90;;;;;;5025028;28;20210;-74
2021/01/28 12:49:08;;;;;;;6.73;6.17;;;8.50;99.90;;;;;;5040768;28;20425;-74
2021/01/28 12:51:34;;;;;;;4.60;4.30;;;8.50;99.90;;;;;;5040402;28;20432;-74
2021/01/28 12:54:00;;;;;;;5.73;5.20;;;8.60;99.90;;;;;;5045175;28;20189;-73
2021/01/28 12:56:25;;;;;;;5.30;4.77;;;8.60;99.90;;;;;;5048342;28;20268;-73
2021/01/28 12:58:51;;;;;;;4.57;4.17;;;8.60;99.90;;;;;;5044652;28;20174;-73
2021/01/28 13:01:17;;;;;;;6.93;6.50;;;8.70;99.90;;;;;;5040580;28;20206;-75
2021/01/28 13:03:43;;;;;;;6.30;5.80;;;8.70;99.90;;;;;;5038689;28;20189;-74
2021/01/28 13:06:09;;;;;;;6.50;5.90;;;8.60;99.90;;;;;;5047660;28;20190;-73
2021/01/28 13:08:35;;;;;;;5.90;5.50;;;8.60;99.90;;;;;;5052380;28;20415;-73